Ana Sayfa
METAR-TAF:

METAR-TAF

Havaalanları :

Yaoundé, Kamerun

Enlem: 03-50N, Boylam: 011-31E, yükseklik: 751 m

Güncel hava durumu gözlemi

Rapor saat 19:00 UTC de 30 dakika önce yapıldı.
Rüzgar güneybatıdan 2 kt
Sıcaklık 28°C
Nem 66%
Basınç 1014 hPa
Görüş mesafesi: 3000 m
Toz Pusu

METAR: FKYS 241900Z 22002KT 3000 HZ NSC 28/21 Q1014 NOSIG

Saat: 20:30 (19:30 UTC)

Tahmin

Rapor saat 17:00 UTC de 2 saat ve 30 dakika önce yapıldı.
Ayın 24'si saat 18 UTC'den ayın 25'si saat 18 UTC'ye kadar geçerli Tahmin
Rüzgar değişken yönden 5 kt
Görüş mesafesi: 4000 m
2000 ft yükseklikte parçalı bulutlu
Toz Pusu
Dönüşüyor
ayın 24'si saat 22 UTC'den ayın 25'si saat 02 UTC'ye kadar
Görüş mesafesi: 2000 m
600 ft yükseklikte parçalı bulutlu
Pus
Dönüşüyor
ayın 25'si saat 08 UTC'den ayın 25'si saat 10 UTC'ye kadar
Görüş mesafesi: 4000 m
Toz Pusu

TAF: FKYS 241700Z 2418/2518 VRB05KT 4000 HZ SCT020 BECMG 2422/2502 2000 BR SCT006 BECMG 2508/2510 4000 HZ

4.000'den fazla havaalanı için hava durumu gözlemleri ve tahminleri (METAR ve TAF raporları).

Kullanılabilir istasyonlar harita üzerinde sarı ve kırmızı noktalarla gösterilir.

İstasyonun adını görmek için fareyi noktanın üzerinde gezdirin.

Sonrasında hava gözlem ve tahminlerini görmek için tıklayın.

Haritayı değiştirmek için: yaklaştırmak için siyah artı işaretli yeşil düğmeye ve uzaklaştırmak için de eksi işaretli düğmeye hızla tıklayın; bitişik haritalar için yeşil okları kullanın.


METAR-TAF: